createdAt,value
2017-09-18T00:02:20.996Z,8.80
2017-09-18T00:04:49.163Z,8.90
2017-09-18T00:07:17.899Z,8.80
2017-09-18T00:09:46.103Z,8.80
2017-09-18T00:12:14.389Z,8.70
2017-09-18T00:14:42.759Z,8.60
2017-09-18T00:17:11.028Z,8.60
2017-09-18T00:19:39.347Z,8.60
2017-09-18T00:22:07.617Z,8.60
2017-09-18T00:24:35.873Z,8.50
2017-09-18T00:27:04.141Z,8.40
2017-09-18T00:29:32.411Z,8.40
2017-09-18T00:32:00.721Z,8.40
2017-09-18T00:34:29.507Z,8.40
2017-09-18T00:36:57.832Z,8.30
2017-09-18T00:39:26.134Z,8.20
2017-09-18T00:41:54.328Z,8.10
2017-09-18T00:44:22.598Z,8.10
2017-09-18T00:46:50.894Z,8.10
2017-09-18T00:49:19.171Z,8.20
2017-09-18T00:51:47.658Z,8.30
2017-09-18T00:54:16.252Z,8.40
2017-09-18T00:56:44.672Z,8.50
2017-09-18T00:59:13.337Z,8.60
2017-09-18T01:01:41.524Z,8.70
2017-09-18T01:04:10.575Z,8.60
2017-09-18T01:06:39.772Z,8.60
2017-09-18T01:09:08.095Z,8.60
2017-09-18T01:11:37.077Z,8.60
2017-09-18T01:14:05.594Z,8.50
2017-09-18T01:16:33.885Z,8.40
2017-09-18T01:19:02.879Z,8.20
2017-09-18T01:21:31.257Z,8.20
2017-09-18T01:23:59.664Z,8.20
2017-09-18T01:26:28.580Z,8.10
2017-09-18T01:28:56.828Z,8.20
2017-09-18T01:31:25.142Z,8.20
2017-09-18T01:33:53.395Z,8.10
2017-09-18T01:36:21.792Z,8.10
2017-09-18T01:38:50.031Z,8.10
2017-09-18T01:41:18.507Z,8.00
2017-09-18T01:43:46.737Z,8.00
2017-09-18T01:46:15.040Z,8.00
2017-09-18T01:48:43.404Z,7.90
2017-09-18T01:51:11.651Z,7.80
2017-09-18T01:53:40.531Z,7.80
2017-09-18T01:56:08.768Z,8.00
2017-09-18T01:58:37.680Z,8.00
2017-09-18T02:01:05.952Z,8.00
2017-09-18T02:03:34.399Z,7.90
2017-09-18T02:06:02.920Z,7.80
2017-09-18T02:08:31.100Z,7.80
2017-09-18T02:10:59.388Z,7.70
2017-09-18T02:13:28.406Z,7.70
2017-09-18T02:15:57.528Z,7.80
2017-09-18T02:18:25.733Z,7.80
2017-09-18T02:20:54.294Z,8.00
2017-09-18T02:23:22.652Z,8.10
2017-09-18T02:25:51.048Z,8.10
2017-09-18T02:28:19.572Z,8.30
2017-09-18T02:30:47.952Z,8.40
2017-09-18T02:33:16.160Z,8.30
2017-09-18T02:35:44.409Z,8.30
2017-09-18T02:38:12.552Z,8.40
2017-09-18T02:40:40.732Z,8.40
2017-09-18T02:43:09.052Z,8.40
2017-09-18T02:45:37.280Z,8.40
2017-09-18T02:48:05.439Z,8.20
2017-09-18T02:50:33.768Z,8.30
2017-09-18T02:53:02.174Z,8.40
2017-09-18T02:55:31.252Z,8.20
2017-09-18T02:58:00.267Z,8.00
2017-09-18T03:00:28.684Z,8.00
2017-09-18T03:02:57.123Z,7.90
2017-09-18T03:05:25.405Z,8.10
2017-09-18T03:07:54.436Z,8.40
2017-09-18T03:10:22.693Z,8.40
2017-09-18T03:12:50.920Z,8.20
2017-09-18T03:15:19.123Z,8.20
2017-09-18T03:17:47.442Z,8.00
2017-09-18T03:20:15.890Z,7.90
2017-09-18T03:22:44.308Z,7.90
2017-09-18T03:25:12.715Z,7.80
2017-09-18T03:27:42.027Z,7.60
2017-09-18T03:30:10.414Z,7.50
2017-09-18T03:32:39.151Z,7.50
2017-09-18T03:35:07.503Z,7.50
2017-09-18T03:37:35.761Z,7.40
2017-09-18T03:40:04.223Z,7.50
2017-09-18T03:42:32.737Z,7.60
2017-09-18T03:45:01.047Z,7.70
2017-09-18T03:47:30.127Z,7.80
2017-09-18T03:49:58.657Z,7.80
2017-09-18T03:52:26.977Z,7.80
2017-09-18T03:54:55.316Z,7.70
2017-09-18T03:57:23.728Z,7.60
2017-09-18T03:59:51.990Z,7.50
2017-09-18T04:02:20.418Z,7.50
2017-09-18T04:04:48.637Z,7.50
2017-09-18T04:07:17.124Z,7.50
2017-09-18T04:09:45.476Z,7.40
2017-09-18T04:12:14.005Z,7.50
2017-09-18T04:14:42.309Z,7.50
2017-09-18T04:17:10.652Z,7.40
2017-09-18T04:19:39.017Z,7.40
2017-09-18T04:22:07.532Z,7.30
2017-09-18T04:24:35.779Z,7.30
2017-09-18T04:27:04.026Z,7.40
2017-09-18T04:29:32.455Z,7.50
2017-09-18T04:32:01.148Z,7.50
2017-09-18T04:34:29.628Z,7.50
2017-09-18T04:36:58.566Z,7.30
2017-09-18T04:39:27.194Z,7.30
2017-09-18T04:41:55.487Z,7.20
2017-09-18T04:44:23.752Z,7.20
2017-09-18T04:46:51.989Z,7.60
2017-09-18T04:49:20.702Z,7.70
2017-09-18T04:51:49.159Z,7.80
2017-09-18T04:54:17.615Z,7.80
2017-09-18T04:56:46.288Z,7.80
2017-09-18T04:59:14.647Z,7.90
2017-09-18T05:01:43.114Z,8.00
2017-09-18T05:04:11.427Z,8.00
2017-09-18T05:06:39.794Z,8.10
2017-09-18T05:09:08.910Z,8.20
2017-09-18T05:11:37.452Z,8.20
2017-09-18T05:14:05.716Z,8.20
2017-09-18T05:16:34.064Z,8.30
2017-09-18T05:19:03.620Z,8.50
2017-09-18T05:21:32.958Z,8.60
2017-09-18T05:24:01.449Z,8.60
2017-09-18T05:26:29.871Z,8.70
2017-09-18T05:28:58.333Z,8.70
2017-09-18T05:31:27.042Z,8.80
2017-09-18T05:33:55.570Z,8.80
2017-09-18T05:36:23.985Z,8.80
2017-09-18T05:38:53.464Z,8.90
2017-09-18T05:41:22.249Z,8.90
2017-09-18T05:43:50.624Z,8.90
2017-09-18T05:46:18.874Z,9.10
2017-09-18T05:48:47.247Z,9.10
2017-09-18T05:51:15.495Z,9.10
2017-09-18T05:53:43.712Z,9.10
2017-09-18T05:56:12.483Z,9.20
2017-09-18T05:58:40.729Z,9.20
2017-09-18T06:01:09.869Z,9.40
2017-09-18T06:03:39.221Z,9.30
2017-09-18T06:06:07.622Z,9.50
2017-09-18T06:08:36.034Z,9.60
2017-09-18T06:11:04.578Z,9.70
2017-09-18T06:13:32.993Z,9.70
2017-09-18T06:16:01.409Z,9.90
2017-09-18T06:18:29.815Z,10.00
2017-09-18T06:20:58.064Z,9.90
2017-09-18T06:23:26.272Z,10.00
2017-09-18T06:25:54.607Z,10.00
2017-09-18T06:28:22.870Z,10.10
2017-09-18T06:30:51.105Z,10.10
2017-09-18T06:33:20.734Z,10.20
2017-09-18T06:35:49.152Z,10.10
2017-09-18T06:38:17.579Z,10.50
2017-09-18T06:40:55.162Z,10.70
2017-09-18T06:43:23.511Z,10.60
2017-09-18T06:45:51.915Z,10.70
2017-09-18T06:48:20.242Z,10.80
2017-09-18T06:50:48.749Z,11.00
2017-09-18T06:53:17.243Z,11.00
2017-09-18T06:55:45.592Z,11.00
2017-09-18T06:58:13.927Z,11.00
2017-09-18T07:00:42.322Z,11.10
2017-09-18T07:03:10.613Z,11.20
2017-09-18T07:05:39.266Z,11.30
2017-09-18T07:08:08.403Z,11.40
2017-09-18T07:10:37.103Z,11.40
2017-09-18T07:13:05.393Z,11.60
2017-09-18T07:15:33.788Z,11.60
2017-09-18T07:18:02.297Z,11.60
2017-09-18T07:20:31.328Z,11.90
2017-09-18T07:23:00.390Z,12.10
2017-09-18T07:25:28.847Z,12.00
2017-09-18T07:27:57.268Z,12.10
2017-09-18T07:30:25.442Z,12.10
2017-09-18T07:32:53.780Z,12.30
2017-09-18T07:35:22.232Z,12.40
2017-09-18T07:37:51.154Z,12.50
2017-09-18T07:40:19.924Z,12.30
2017-09-18T07:42:48.149Z,12.40
2017-09-18T07:45:16.403Z,12.50
2017-09-18T07:47:45.960Z,12.60
2017-09-18T07:50:14.456Z,12.60
2017-09-18T07:52:42.836Z,12.70
2017-09-18T07:55:11.105Z,12.70
2017-09-18T07:57:39.570Z,12.80
2017-09-18T08:00:08.006Z,12.90
2017-09-18T08:02:36.401Z,13.10
2017-09-18T08:05:04.622Z,13.10
2017-09-18T08:07:33.047Z,13.10
2017-09-18T08:10:01.491Z,13.30
2017-09-18T08:12:30.514Z,13.50
2017-09-18T08:14:58.813Z,13.50
2017-09-18T08:17:27.207Z,13.70
2017-09-18T08:19:55.522Z,13.80
2017-09-18T08:22:23.754Z,13.90
2017-09-18T08:24:52.096Z,14.00
2017-09-18T08:27:20.537Z,14.00
2017-09-18T08:29:49.121Z,14.10
2017-09-18T08:32:17.700Z,14.20
2017-09-18T08:34:46.114Z,14.40
2017-09-18T08:37:14.580Z,14.60
2017-09-18T08:39:43.494Z,14.80
2017-09-18T08:42:11.935Z,14.80
2017-09-18T08:44:40.247Z,15.00
2017-09-18T08:47:08.487Z,15.10
2017-09-18T08:49:36.799Z,15.30
2017-09-18T08:52:05.024Z,15.40
2017-09-18T08:54:33.291Z,15.60
2017-09-18T08:59:35.996Z,15.90
2017-09-18T09:02:04.187Z,16.00
2017-09-18T09:04:32.653Z,16.00
2017-09-18T09:07:01.101Z,15.90
2017-09-18T09:09:29.415Z,16.00
2017-09-18T09:11:57.812Z,16.10
2017-09-18T09:14:26.263Z,16.20
2017-09-18T09:16:54.788Z,16.20
2017-09-18T09:19:23.950Z,18.90
2017-09-18T09:21:52.514Z,18.80
2017-09-18T09:24:20.856Z,21.10
2017-09-18T09:26:49.237Z,22.60
2017-09-18T09:29:17.643Z,21.30
2017-09-18T09:31:45.944Z,20.00
2017-09-18T09:34:14.174Z,19.60
2017-09-18T09:36:42.845Z,22.00
2017-09-18T09:39:11.815Z,26.10
2017-09-18T09:41:40.113Z,25.90
2017-09-18T09:44:08.393Z,26.20
2017-09-18T09:46:36.806Z,24.60
2017-09-18T09:49:05.141Z,22.00
2017-09-18T09:51:33.327Z,20.00
2017-09-18T09:54:01.550Z,18.80
2017-09-18T09:56:30.021Z,18.20
2017-09-18T09:58:58.445Z,17.80
2017-09-18T10:01:26.877Z,17.90
2017-09-18T10:03:55.300Z,19.20
2017-09-18T10:06:23.913Z,22.20
2017-09-18T10:08:52.298Z,23.00
2017-09-18T10:11:21.773Z,24.70
2017-09-18T10:13:50.129Z,24.60
2017-09-18T10:16:18.340Z,25.60
2017-09-18T10:18:46.618Z,24.50
2017-09-18T10:21:15.322Z,22.40
2017-09-18T10:23:43.934Z,20.10
2017-09-18T10:26:12.241Z,19.10
2017-09-18T10:28:40.877Z,18.30
2017-09-18T10:31:09.356Z,18.30
2017-09-18T10:33:37.708Z,18.30
2017-09-18T10:36:07.032Z,24.40
2017-09-18T10:38:35.504Z,24.30
2017-09-18T10:41:03.858Z,25.30
2017-09-18T10:43:32.248Z,24.50
2017-09-18T10:46:00.797Z,24.70
2017-09-18T10:48:29.856Z,26.20
2017-09-18T10:50:58.303Z,26.20
2017-09-18T10:53:27.458Z,24.00
2017-09-18T10:55:55.679Z,23.90
2017-09-18T10:58:24.120Z,22.00
2017-09-18T11:00:52.427Z,20.20
2017-09-18T11:03:20.669Z,19.30
2017-09-18T11:08:23.706Z,18.40
2017-09-18T11:10:52.219Z,18.40
2017-09-18T11:13:20.744Z,18.50
2017-09-18T11:15:49.066Z,18.40
2017-09-18T11:18:17.460Z,18.50
2017-09-18T11:20:45.908Z,18.20
2017-09-18T11:23:14.926Z,18.50
2017-09-18T11:25:44.045Z,19.00
2017-09-18T11:28:12.492Z,18.90
2017-09-18T11:30:40.963Z,18.90
2017-09-18T11:33:14.550Z,18.60
2017-09-18T11:35:44.639Z,18.40
2017-09-18T11:38:12.920Z,18.40
2017-09-18T11:40:41.293Z,18.30
2017-09-18T11:43:10.015Z,18.30
2017-09-18T11:45:39.420Z,18.70
2017-09-18T11:48:07.781Z,18.60
2017-09-18T11:50:36.832Z,18.60
2017-09-18T11:53:05.371Z,18.60
2017-09-18T11:55:33.768Z,18.40
2017-09-18T11:58:03.064Z,18.40
2017-09-18T12:00:32.047Z,18.80
2017-09-18T12:03:00.498Z,18.70
2017-09-18T12:05:28.954Z,18.70
2017-09-18T12:07:57.196Z,18.60
2017-09-18T12:10:25.708Z,19.40
2017-09-18T12:12:54.880Z,23.40
2017-09-18T12:15:23.257Z,23.30
2017-09-18T12:17:51.607Z,23.30
2017-09-18T12:20:20.023Z,22.70
2017-09-18T12:22:48.665Z,21.80
2017-09-18T12:25:16.953Z,20.80
2017-09-18T12:27:45.369Z,20.30
2017-09-18T12:30:13.879Z,20.00
2017-09-18T12:32:42.342Z,21.30
2017-09-18T12:35:11.575Z,25.20
2017-09-18T12:37:40.063Z,25.10
2017-09-18T12:40:08.403Z,26.40
2017-09-18T12:42:36.621Z,26.20
2017-09-18T12:45:04.993Z,24.40
2017-09-18T12:47:33.264Z,24.20
2017-09-18T12:50:01.656Z,22.60
2017-09-18T12:52:29.925Z,20.70
2017-09-18T12:54:58.309Z,19.80
2017-09-18T12:57:26.593Z,20.00
2017-09-18T12:59:55.328Z,22.00
2017-09-18T13:02:23.520Z,22.30
2017-09-18T13:04:51.984Z,23.50
2017-09-18T13:07:20.447Z,24.00
2017-09-18T13:09:48.855Z,23.70
2017-09-18T13:12:17.288Z,22.80
2017-09-18T13:14:45.692Z,22.60
2017-09-18T13:17:13.899Z,23.70
2017-09-18T13:19:42.161Z,24.50
2017-09-18T13:22:10.463Z,23.90
2017-09-18T13:24:39.479Z,21.60
2017-09-18T13:27:07.698Z,21.50
2017-09-18T13:29:36.772Z,20.70
2017-09-18T13:32:05.255Z,20.60
2017-09-18T13:34:33.935Z,20.20
2017-09-18T13:37:02.322Z,19.60
2017-09-18T13:39:33.519Z,19.40
2017-09-18T13:42:01.803Z,21.00
2017-09-18T13:44:30.193Z,23.00
2017-09-18T13:46:58.473Z,24.40
2017-09-18T13:49:26.989Z,24.80
2017-09-18T13:51:55.256Z,25.20
2017-09-18T13:54:24.246Z,25.40
2017-09-18T13:56:52.750Z,25.90
2017-09-18T13:59:21.076Z,25.50
2017-09-18T14:01:49.509Z,24.80
2017-09-18T14:04:18.816Z,23.00
2017-09-18T14:06:47.291Z,21.20
2017-09-18T14:09:15.756Z,20.10
2017-09-18T14:11:44.161Z,19.80
2017-09-18T14:14:12.689Z,19.60
2017-09-18T14:16:41.119Z,19.30
2017-09-18T14:19:09.527Z,18.90
2017-09-18T14:21:38.848Z,18.90
2017-09-18T14:24:07.406Z,18.90
2017-09-18T14:26:35.673Z,18.80
2017-09-18T14:29:04.149Z,18.80
2017-09-18T14:31:32.382Z,19.40
2017-09-18T14:34:00.876Z,19.40
2017-09-18T14:36:29.141Z,19.00
2017-09-18T14:38:57.691Z,18.50
2017-09-18T14:41:26.265Z,18.10
2017-09-18T14:43:54.562Z,19.10
2017-09-18T14:46:22.933Z,20.80
2017-09-18T14:48:51.343Z,22.90
2017-09-18T14:51:20.187Z,24.30
2017-09-18T14:53:48.810Z,23.50
2017-09-18T14:56:17.341Z,22.30
2017-09-18T14:58:45.779Z,21.20
2017-09-18T15:01:14.191Z,20.20
2017-09-18T15:03:42.607Z,19.80
2017-09-18T15:06:11.195Z,21.00
2017-09-18T15:08:40.616Z,25.30
2017-09-18T15:11:08.859Z,25.20
2017-09-18T15:13:37.053Z,26.20
2017-09-18T15:16:05.538Z,27.10
2017-09-18T15:18:33.827Z,27.90
2017-09-18T15:21:02.259Z,28.10
2017-09-18T15:23:30.712Z,28.60
2017-09-18T15:25:59.088Z,28.70
2017-09-18T15:28:27.755Z,29.30
2017-09-18T15:30:55.989Z,29.40
2017-09-18T15:33:24.348Z,29.00
2017-09-18T15:35:52.811Z,29.20
2017-09-18T15:38:21.031Z,29.40
2017-09-18T15:40:50.122Z,27.50
2017-09-18T15:43:18.645Z,27.40
2017-09-18T15:45:47.242Z,26.70
2017-09-18T15:48:15.983Z,26.40
2017-09-18T15:50:44.451Z,26.20
2017-09-18T15:53:13.756Z,25.50
2017-09-18T15:55:42.181Z,25.40
2017-09-18T15:58:10.373Z,24.90
2017-09-18T16:00:38.710Z,24.30
2017-09-18T16:03:07.076Z,23.70
2017-09-18T16:05:35.543Z,23.00
2017-09-18T16:08:03.983Z,22.30
2017-09-18T16:10:32.366Z,21.70
2017-09-18T16:13:00.588Z,21.00
2017-09-18T16:15:28.837Z,20.30
2017-09-18T16:17:58.179Z,19.60
2017-09-18T16:20:26.710Z,19.60
2017-09-18T16:22:54.982Z,19.30
2017-09-18T16:25:23.194Z,19.10
2017-09-18T16:27:52.080Z,18.90
2017-09-18T16:30:20.335Z,18.60
2017-09-18T16:32:48.576Z,18.50
2017-09-18T16:35:17.071Z,18.40
2017-09-18T16:37:45.508Z,18.10
2017-09-18T16:40:13.862Z,18.00
2017-09-18T16:42:42.195Z,17.70
2017-09-18T16:45:10.529Z,17.50
2017-09-18T16:47:38.767Z,17.30
2017-09-18T16:50:07.228Z,17.40
2017-09-18T16:52:35.563Z,17.60
2017-09-18T16:55:03.922Z,17.90
2017-09-18T16:57:33.211Z,18.10
2017-09-18T17:00:01.541Z,18.10
2017-09-18T17:02:30.944Z,18.20
2017-09-18T17:05:00.360Z,18.10
2017-09-18T17:07:29.119Z,17.80
2017-09-18T17:09:58.473Z,17.30
2017-09-18T17:12:26.867Z,16.80
2017-09-18T17:14:55.275Z,16.30
2017-09-18T17:17:23.715Z,15.80
2017-09-18T17:19:52.162Z,15.30
2017-09-18T17:22:20.644Z,14.90
2017-09-18T17:24:49.209Z,14.50
2017-09-18T17:27:17.464Z,14.20
2017-09-18T17:29:46.193Z,13.90
2017-09-18T17:32:15.005Z,13.70
2017-09-18T17:34:43.651Z,13.60
2017-09-18T17:37:11.988Z,13.40
2017-09-18T17:39:41.322Z,13.10
2017-09-18T17:42:09.702Z,13.10
2017-09-18T17:44:38.502Z,12.90
2017-09-18T17:47:06.857Z,12.70
2017-09-18T17:49:36.064Z,12.60
2017-09-18T17:52:05.185Z,12.50
2017-09-18T17:54:33.562Z,12.40
2017-09-18T17:57:02.724Z,12.40
2017-09-18T17:59:31.057Z,12.40
2017-09-18T18:01:59.394Z,12.30
2017-09-18T18:04:27.653Z,12.20
2017-09-18T18:06:55.978Z,12.20
2017-09-18T18:09:25.048Z,12.10
2017-09-18T18:11:53.668Z,12.10
2017-09-18T18:14:22.180Z,12.00
2017-09-18T18:16:51.259Z,11.90
2017-09-18T18:19:20.582Z,11.80
2017-09-18T18:21:49.642Z,11.70
2017-09-18T18:24:18.867Z,11.60
2017-09-18T18:26:47.932Z,11.30
2017-09-18T18:29:16.238Z,11.30
2017-09-18T18:31:45.463Z,11.10
2017-09-18T18:34:13.913Z,11.10
2017-09-18T18:36:42.939Z,10.90
2017-09-18T18:39:11.216Z,10.90
2017-09-18T18:41:40.233Z,10.90
2017-09-18T18:44:09.149Z,10.90
2017-09-18T18:46:37.633Z,11.00
2017-09-18T18:49:05.904Z,11.00
2017-09-18T18:51:34.397Z,11.00
2017-09-18T18:54:02.805Z,11.00
2017-09-18T18:56:31.383Z,10.90
2017-09-18T18:58:59.821Z,10.80
2017-09-18T19:01:29.837Z,10.70
2017-09-18T19:03:58.207Z,10.60
2017-09-18T19:06:27.395Z,10.70
2017-09-18T19:08:55.628Z,10.60
2017-09-18T19:11:23.987Z,10.70
2017-09-18T19:13:52.592Z,10.70
2017-09-18T19:16:21.034Z,10.70
2017-09-18T19:18:49.895Z,10.80
2017-09-18T19:21:18.291Z,10.70
2017-09-18T19:23:46.703Z,10.60
2017-09-18T19:26:14.971Z,10.70
2017-09-18T19:28:43.241Z,10.70
2017-09-18T19:31:11.645Z,10.70
2017-09-18T19:33:40.353Z,10.60
2017-09-18T19:36:09.075Z,10.50
2017-09-18T19:38:38.531Z,10.40
2017-09-18T19:41:06.965Z,10.40
2017-09-18T19:43:35.257Z,10.40
2017-09-18T19:46:03.550Z,10.50
2017-09-18T19:48:33.090Z,10.40
2017-09-18T19:51:01.395Z,10.40
2017-09-18T19:53:29.831Z,10.40
2017-09-18T19:55:58.141Z,10.50
2017-09-18T19:58:26.804Z,10.40
2017-09-18T20:00:55.769Z,10.50
2017-09-18T20:03:25.392Z,10.50
2017-09-18T20:05:53.778Z,10.50
2017-09-18T20:08:22.626Z,10.50
2017-09-18T20:10:51.553Z,10.90
2017-09-18T20:13:20.065Z,10.90
2017-09-18T20:15:48.443Z,11.00
2017-09-18T20:18:16.995Z,11.00
2017-09-18T20:20:45.412Z,11.10
2017-09-18T20:23:13.779Z,11.10
2017-09-18T20:25:42.387Z,11.10
2017-09-18T20:28:10.938Z,11.00
2017-09-18T20:30:39.212Z,11.00
2017-09-18T20:33:07.692Z,11.10
2017-09-18T20:35:36.653Z,11.00
2017-09-18T20:38:05.101Z,10.90
2017-09-18T20:40:33.698Z,10.90
2017-09-18T20:43:02.568Z,10.80
2017-09-18T20:45:31.476Z,10.60
2017-09-18T20:47:59.811Z,10.70
2017-09-18T20:50:28.150Z,10.70
2017-09-18T20:52:56.514Z,10.60
2017-09-18T20:55:24.847Z,10.50
2017-09-18T20:57:53.519Z,10.30
2017-09-18T21:00:21.925Z,10.20
2017-09-18T21:02:51.842Z,10.10
2017-09-18T21:05:20.316Z,9.90
2017-09-18T21:07:48.682Z,9.90
2017-09-18T21:10:17.963Z,10.00
2017-09-18T21:12:46.230Z,10.00
2017-09-18T21:15:15.277Z,10.10
2017-09-18T21:17:43.549Z,10.00
2017-09-18T21:20:11.865Z,10.10
2017-09-18T21:22:40.137Z,10.00
2017-09-18T21:25:08.411Z,9.90
2017-09-18T21:27:36.631Z,9.80
2017-09-18T21:30:05.032Z,9.80
2017-09-18T21:32:34.202Z,9.90
2017-09-18T21:35:02.460Z,9.80
2017-09-18T21:37:30.688Z,9.80
2017-09-18T21:39:59.114Z,9.80
2017-09-18T21:42:27.412Z,9.70
2017-09-18T21:44:55.811Z,9.70
2017-09-18T21:47:24.787Z,10.00
2017-09-18T21:49:53.340Z,9.90
2017-09-18T21:52:21.644Z,10.00
2017-09-18T21:54:49.951Z,10.00
2017-09-18T21:57:18.327Z,10.00
2017-09-18T21:59:46.730Z,10.00
2017-09-18T22:02:15.179Z,9.90
2017-09-18T22:04:43.674Z,9.90
2017-09-18T22:07:11.909Z,9.90
2017-09-18T22:09:40.143Z,9.90
2017-09-18T22:12:08.573Z,10.00
2017-09-18T22:14:36.870Z,10.10
2017-09-18T22:17:05.148Z,10.00
2017-09-18T22:19:33.743Z,10.00
2017-09-18T22:22:02.797Z,9.70
2017-09-18T22:24:32.239Z,9.60
2017-09-18T22:27:00.989Z,9.60
2017-09-18T22:29:29.505Z,9.50
2017-09-18T22:31:57.733Z,9.50
2017-09-18T22:34:26.142Z,9.50
2017-09-18T22:36:54.433Z,9.50
2017-09-18T22:39:22.713Z,9.60
2017-09-18T22:41:51.021Z,9.70
2017-09-18T22:44:19.225Z,9.70
2017-09-18T22:46:47.543Z,9.70
2017-09-18T22:49:15.917Z,9.70
2017-09-18T22:51:44.413Z,9.60
2017-09-18T22:54:12.670Z,9.70
2017-09-18T22:56:40.941Z,9.70
2017-09-18T22:59:09.364Z,9.70
2017-09-18T23:01:37.802Z,9.80
2017-09-18T23:04:06.130Z,9.80
2017-09-18T23:06:34.597Z,9.60
2017-09-18T23:09:02.988Z,9.60
2017-09-18T23:11:31.369Z,9.60
2017-09-18T23:13:59.791Z,9.60
2017-09-18T23:16:28.177Z,9.50
2017-09-18T23:18:56.409Z,9.40
2017-09-18T23:21:24.772Z,9.20
2017-09-18T23:23:53.201Z,9.20
2017-09-18T23:26:22.155Z,9.70
2017-09-18T23:28:50.384Z,9.70
2017-09-18T23:31:19.210Z,9.90
2017-09-18T23:33:47.567Z,9.90
2017-09-18T23:36:15.987Z,10.00
2017-09-18T23:38:44.382Z,10.00
2017-09-18T23:41:12.711Z,9.90
2017-09-18T23:43:40.971Z,10.00
2017-09-18T23:46:09.295Z,9.90
2017-09-18T23:48:37.568Z,9.80
2017-09-18T23:51:06.007Z,9.80
2017-09-18T23:53:35.373Z,9.70
2017-09-18T23:56:04.349Z,9.70
2017-09-18T23:58:32.781Z,9.70
